createdAt,value
2019-04-01T00:03:18.026Z,60.90
2019-04-01T00:08:17.738Z,60.80
2019-04-01T00:13:17.697Z,61.40
2019-04-01T00:18:18.046Z,61.20
2019-04-01T00:23:17.666Z,61.30
2019-04-01T00:28:17.418Z,61.30
2019-04-01T00:33:17.043Z,60.90
2019-04-01T00:38:16.663Z,60.90
2019-04-01T00:43:20.717Z,61.60
2019-04-01T00:48:21.306Z,61.70
2019-04-01T00:53:20.988Z,61.90
2019-04-01T00:58:20.643Z,61.90
2019-04-01T01:03:20.303Z,62.00
2019-04-01T01:08:19.978Z,62.30
2019-04-01T01:13:20.123Z,62.10
2019-04-01T01:18:19.750Z,62.60
2019-04-01T01:23:19.675Z,62.60
2019-04-01T01:28:19.782Z,62.60
2019-04-01T01:33:19.446Z,62.50
2019-04-01T01:38:19.070Z,62.60
2019-04-01T01:43:18.690Z,62.70
2019-04-01T01:48:18.670Z,62.90
2019-04-01T01:53:18.298Z,62.60
2019-04-01T01:58:18.286Z,62.80
2019-04-01T02:03:18.234Z,63.00
2019-04-01T02:08:18.126Z,63.20
2019-04-01T02:13:20.154Z,63.30
2019-04-01T02:18:19.215Z,62.90
2019-04-01T02:23:18.844Z,62.60
2019-04-01T02:28:18.583Z,62.80
2019-04-01T02:33:18.281Z,62.70
2019-04-01T02:38:17.987Z,63.60
2019-04-01T02:43:18.037Z,63.10
2019-04-01T02:48:17.690Z,62.60
2019-04-01T02:53:17.701Z,62.90
2019-04-01T02:58:17.424Z,64.50
2019-04-01T03:03:17.482Z,63.90
2019-04-01T03:08:17.101Z,63.80
2019-04-01T03:13:17.062Z,63.60
2019-04-01T03:18:16.707Z,63.70
2019-04-01T03:23:16.675Z,64.40
2019-04-01T03:28:16.610Z,63.70
2019-04-01T03:33:16.547Z,63.70
2019-04-01T03:38:16.247Z,63.70
2019-04-01T03:43:15.907Z,63.80
2019-04-01T03:48:15.562Z,63.60
2019-04-01T03:53:15.178Z,63.90
2019-04-01T03:58:14.842Z,63.50
2019-04-01T04:03:14.815Z,62.70
2019-04-01T04:08:14.503Z,63.80
2019-04-01T04:13:15.587Z,64.00
2019-04-01T04:18:15.225Z,64.20
2019-04-01T04:23:14.896Z,64.20
2019-04-01T04:28:14.621Z,64.20
2019-04-01T04:33:14.274Z,64.00
2019-04-01T04:38:13.939Z,64.20
2019-04-01T04:43:13.605Z,64.10
2019-04-01T04:48:13.246Z,64.10
2019-04-01T04:53:12.942Z,64.30
2019-04-01T04:58:12.899Z,64.30
2019-04-01T05:03:12.523Z,64.40
2019-04-01T05:08:12.162Z,64.20
2019-04-01T05:13:12.131Z,64.60
2019-04-01T05:18:11.777Z,64.60
2019-04-01T05:23:13.269Z,64.80
2019-04-01T05:28:14.886Z,65.10
2019-04-01T05:33:16.521Z,65.20
2019-04-01T05:38:16.518Z,64.70
2019-04-01T05:43:16.170Z,65.70
2019-04-01T05:48:17.018Z,65.90
2019-04-01T05:53:16.733Z,66.00
2019-04-01T05:58:16.844Z,66.70
2019-04-01T06:03:16.559Z,67.10
2019-04-01T06:08:17.306Z,67.10
2019-04-01T06:13:17.022Z,67.20
2019-04-01T06:18:16.786Z,67.20
2019-04-01T06:23:16.557Z,67.60
2019-04-01T06:28:16.255Z,66.90
2019-04-01T06:33:16.055Z,67.20
2019-04-01T06:38:15.777Z,68.50
2019-04-01T06:43:15.500Z,68.50
2019-04-01T06:48:15.210Z,69.10
2019-04-01T06:53:15.007Z,68.70
2019-04-01T06:58:14.725Z,68.70
2019-04-01T07:03:14.790Z,69.20
2019-04-01T07:08:14.610Z,68.20
2019-04-01T07:13:14.414Z,66.70
2019-04-01T07:18:14.122Z,64.10
2019-04-01T07:23:13.854Z,66.20
2019-04-01T07:28:13.651Z,64.20
2019-04-01T07:33:13.357Z,67.00
2019-04-01T07:38:14.522Z,62.20
2019-04-01T07:43:15.184Z,59.80
2019-04-01T07:48:15.120Z,60.00
2019-04-01T07:53:14.951Z,59.10
2019-04-01T07:58:14.750Z,61.00
2019-04-01T08:03:14.735Z,61.40
2019-04-01T08:08:14.522Z,58.70
2019-04-01T08:13:14.138Z,56.80
2019-04-01T08:18:13.830Z,56.60
2019-04-01T08:23:13.747Z,60.00
2019-04-01T08:28:13.535Z,56.00
2019-04-01T08:33:13.258Z,55.40
2019-04-01T08:38:13.314Z,59.20
2019-04-01T08:43:13.286Z,56.00
2019-04-01T08:48:12.950Z,59.30
2019-04-01T08:53:12.671Z,54.40
2019-04-01T08:58:12.504Z,55.60
2019-04-01T09:03:12.209Z,56.20
2019-04-01T09:08:11.951Z,52.90
2019-04-01T09:13:11.881Z,53.20
2019-04-01T09:18:11.706Z,54.30
2019-04-01T09:23:11.358Z,54.90
2019-04-01T09:28:11.076Z,54.20
2019-04-01T09:33:10.748Z,53.10
2019-04-01T09:38:10.794Z,53.90
2019-04-01T09:43:13.913Z,54.40
2019-04-01T09:48:12.944Z,50.70
2019-04-01T09:53:12.843Z,48.80
2019-04-01T09:58:12.478Z,47.20
2019-04-01T10:03:12.142Z,46.60
2019-04-01T10:08:12.263Z,46.70
2019-04-01T10:13:11.930Z,48.30
2019-04-01T10:18:30.802Z,45.40
2019-04-01T10:23:30.533Z,47.60
2019-04-01T10:28:32.215Z,46.60
2019-04-01T10:33:32.487Z,46.80
2019-04-01T10:38:32.138Z,44.00
2019-04-01T10:43:31.886Z,43.60
2019-04-01T10:48:31.951Z,43.30
2019-04-01T10:53:31.752Z,44.80
2019-04-01T10:58:31.673Z,44.20
2019-04-01T11:03:31.357Z,44.90
2019-04-01T11:08:31.278Z,45.30
2019-04-01T11:13:31.030Z,44.50
2019-04-01T11:18:30.758Z,45.40
2019-04-01T11:23:30.374Z,43.50
2019-04-01T11:28:29.998Z,44.20
2019-04-01T11:33:29.804Z,41.30
2019-04-01T11:38:29.511Z,42.90
2019-04-01T11:43:41.435Z,41.20
2019-04-01T11:48:41.198Z,42.20
2019-04-01T11:53:41.055Z,39.60
2019-04-01T11:58:41.118Z,40.40
2019-04-01T12:03:41.186Z,41.90
2019-04-01T12:08:40.810Z,41.60
2019-04-01T12:13:41.351Z,39.70
2019-04-01T12:18:41.000Z,42.30
2019-04-01T12:23:40.786Z,39.10
2019-04-01T12:28:40.810Z,40.40
2019-04-01T12:33:40.632Z,41.40
2019-04-01T12:38:40.296Z,38.80
2019-04-01T12:43:39.942Z,39.60
2019-04-01T12:48:39.583Z,40.40
2019-04-01T12:53:39.766Z,39.70
2019-04-01T12:58:39.448Z,40.50
2019-04-01T13:03:39.355Z,39.20
2019-04-01T13:08:39.073Z,40.10
2019-04-01T13:13:38.754Z,38.30
2019-04-01T13:18:39.351Z,37.90
2019-04-01T13:23:39.006Z,38.20
2019-04-01T13:28:42.173Z,40.70
2019-04-01T13:33:40.060Z,37.10
2019-04-01T13:38:39.927Z,38.20
2019-04-01T13:43:39.568Z,36.60
2019-04-01T13:48:39.871Z,38.80
2019-04-01T13:53:39.558Z,40.80
2019-04-01T13:58:40.594Z,37.40
2019-04-01T14:03:40.232Z,40.60
2019-04-01T14:08:40.200Z,39.60
2019-04-01T14:13:40.147Z,41.70
2019-04-01T14:18:39.850Z,42.80
2019-04-01T14:23:39.502Z,39.90
2019-04-01T14:28:39.206Z,40.20
2019-04-01T14:33:39.070Z,41.20
2019-04-01T14:38:38.706Z,40.90
2019-04-01T14:43:38.343Z,44.30
2019-04-01T14:48:38.120Z,42.10
2019-04-01T14:53:37.935Z,43.60
2019-04-01T14:58:37.876Z,41.80
2019-04-01T15:03:38.482Z,42.70
2019-04-01T15:08:40.221Z,42.20
2019-04-01T15:13:39.883Z,45.00
2019-04-01T15:18:51.479Z,45.10
2019-04-01T15:23:53.330Z,44.80
2019-04-01T15:28:52.526Z,45.30
2019-04-01T15:33:52.410Z,44.80
2019-04-01T15:38:52.063Z,47.00
2019-04-01T15:43:52.678Z,43.40
2019-04-01T15:48:52.446Z,43.90
2019-04-01T15:53:52.170Z,43.10
2019-04-01T15:58:51.813Z,44.10
2019-04-01T16:03:51.579Z,42.80
2019-04-01T16:08:51.230Z,45.30
2019-04-01T16:13:50.957Z,45.30
2019-04-01T16:18:51.208Z,44.60
2019-04-01T16:23:51.143Z,45.50
2019-04-01T16:28:50.879Z,45.80
2019-04-01T16:33:50.530Z,45.50
2019-04-01T16:38:50.397Z,46.50
2019-04-01T16:43:50.362Z,45.70
2019-04-01T16:48:50.194Z,44.00
2019-04-01T16:53:50.695Z,46.10
2019-04-01T16:58:50.416Z,46.70
2019-04-01T17:03:50.123Z,45.20
2019-04-01T17:08:49.934Z,44.80
2019-04-01T17:13:49.900Z,45.10
2019-04-01T17:18:49.869Z,44.00
2019-04-01T17:23:49.607Z,45.20
2019-04-01T17:28:49.266Z,45.20
2019-04-01T17:33:49.602Z,44.40
2019-04-01T17:38:49.499Z,44.80
2019-04-01T17:43:49.159Z,45.80
2019-04-01T17:48:48.874Z,45.90
2019-04-01T17:53:48.599Z,47.80
2019-04-01T17:58:48.363Z,48.40
2019-04-01T18:03:48.068Z,46.90
2019-04-01T18:08:48.010Z,45.70
2019-04-01T18:13:48.074Z,46.80
2019-04-01T18:18:47.783Z,47.80
2019-04-01T18:23:47.442Z,48.40
2019-04-01T18:28:47.067Z,48.20
2019-04-01T18:33:56.079Z,50.30
2019-04-01T18:38:48.374Z,50.30
2019-04-01T18:43:48.001Z,49.40
2019-04-01T18:48:48.231Z,49.30
2019-04-01T18:53:48.279Z,50.40
2019-04-01T18:58:47.940Z,51.60
2019-04-01T19:03:48.446Z,51.30
2019-04-01T19:08:48.101Z,49.30
2019-04-01T19:13:47.765Z,51.00
2019-04-01T19:18:47.570Z,52.00
2019-04-01T19:23:47.239Z,51.60
2019-04-01T19:28:47.236Z,51.00
2019-04-01T19:33:47.187Z,51.30
2019-04-01T19:38:47.509Z,52.20
2019-04-01T19:43:47.253Z,52.60
2019-04-01T19:48:46.979Z,50.70
2019-04-01T19:53:46.632Z,52.00
2019-04-01T19:58:46.651Z,52.30
2019-04-01T20:03:46.279Z,50.30
2019-04-01T20:08:49.520Z,52.80
2019-04-01T20:13:47.658Z,51.80
2019-04-01T20:18:48.467Z,52.70
2019-04-01T20:23:48.135Z,51.50
2019-04-01T20:28:48.815Z,52.70
2019-04-01T20:33:49.277Z,53.50
2019-04-01T20:38:50.259Z,53.80
2019-04-01T20:43:50.040Z,52.10
2019-04-01T20:48:49.786Z,52.40
2019-04-01T20:53:51.302Z,53.40
2019-04-01T20:58:51.006Z,53.30
2019-04-01T21:03:50.734Z,52.40
2019-04-01T21:08:50.374Z,51.60
2019-04-01T21:13:50.099Z,51.80
2019-04-01T21:18:49.730Z,53.30
2019-04-01T21:23:50.446Z,54.50
2019-04-01T21:28:50.433Z,54.00
2019-04-01T21:33:50.070Z,54.90
2019-04-01T21:38:49.715Z,54.90
2019-04-01T21:43:49.518Z,54.40
2019-04-01T21:48:49.502Z,54.90
2019-04-01T21:53:49.158Z,54.80
2019-04-01T21:58:49.172Z,54.00
2019-04-01T22:03:49.399Z,54.60
2019-04-01T22:08:49.062Z,54.00
2019-04-01T22:13:48.786Z,54.60
2019-04-01T22:18:48.753Z,55.00
2019-04-01T22:23:48.394Z,55.50
2019-04-01T22:28:48.022Z,55.10
2019-04-01T22:33:47.690Z,54.30
2019-04-01T22:38:47.355Z,55.30
2019-04-01T22:43:47.260Z,55.40
2019-04-01T22:48:46.900Z,54.90
2019-04-01T22:53:46.842Z,54.90
2019-04-01T22:58:47.446Z,54.20
2019-04-01T23:03:47.070Z,54.70
2019-04-01T23:08:46.830Z,54.20
2019-04-01T23:13:48.196Z,54.50
2019-04-01T23:18:48.020Z,55.30
2019-04-01T23:23:47.658Z,54.60
2019-04-01T23:28:47.446Z,53.90
2019-04-01T23:33:47.170Z,54.30
2019-04-01T23:38:47.154Z,55.90
2019-04-01T23:43:47.034Z,54.90
2019-04-01T23:48:47.942Z,55.30
2019-04-01T23:53:47.607Z,55.80
2019-04-01T23:58:47.262Z,55.70
